createdAt,value
2017-09-19T00:00:01.135Z,27.52
2017-09-19T00:02:28.905Z,26.02
2017-09-19T00:04:57.446Z,27.58
2017-09-19T00:07:25.244Z,26.50
2017-09-19T00:09:53.791Z,27.67
2017-09-19T00:12:21.619Z,26.95
2017-09-19T00:14:49.379Z,27.15
2017-09-19T00:17:17.915Z,28.70
2017-09-19T00:19:45.715Z,30.15
2017-09-19T00:22:13.492Z,29.20
2017-09-19T00:24:41.325Z,28.60
2017-09-19T00:27:09.866Z,32.20
2017-09-19T00:29:37.637Z,29.90
2017-09-19T00:32:05.434Z,29.55
2017-09-19T00:34:33.196Z,27.52
2017-09-19T00:37:01.014Z,28.60
2017-09-19T00:39:28.791Z,30.55
2017-09-19T00:41:56.559Z,27.65
2017-09-19T00:44:25.119Z,28.77
2017-09-19T00:46:52.895Z,25.73
2017-09-19T00:49:20.719Z,27.27
2017-09-19T00:51:48.505Z,28.80
2017-09-19T00:54:16.266Z,28.33
2017-09-19T00:56:44.076Z,27.00
2017-09-19T00:59:11.861Z,28.23
2017-09-19T01:01:39.690Z,26.87
2017-09-19T01:04:08.226Z,28.90
2017-09-19T01:06:35.993Z,29.10
2017-09-19T01:09:03.806Z,29.02
2017-09-19T01:11:31.570Z,30.27
2017-09-19T01:13:59.400Z,28.62
2017-09-19T01:16:27.930Z,30.23
2017-09-19T01:18:55.713Z,28.33
2017-09-19T01:21:23.525Z,30.05
2017-09-19T01:23:52.050Z,29.33
2017-09-19T01:26:19.892Z,34.08
2017-09-19T01:28:47.648Z,33.72
2017-09-19T01:31:15.423Z,30.70
2017-09-19T01:33:43.215Z,31.10
2017-09-19T01:36:10.995Z,29.35
2017-09-19T01:38:38.813Z,27.87
2017-09-19T01:41:06.588Z,30.30
2017-09-19T01:43:34.349Z,30.70
2017-09-19T01:46:02.143Z,32.85
2017-09-19T01:48:30.675Z,30.40
2017-09-19T01:50:58.489Z,30.95
2017-09-19T01:53:26.251Z,31.62
2017-09-19T01:55:54.016Z,29.50
2017-09-19T01:58:22.570Z,33.75
2017-09-19T02:00:50.330Z,33.30
2017-09-19T02:03:18.143Z,31.70
2017-09-19T02:05:45.905Z,31.48
2017-09-19T02:08:13.663Z,32.00
2017-09-19T02:10:41.451Z,31.87
2017-09-19T02:13:09.207Z,31.40
2017-09-19T02:15:37.021Z,29.75
2017-09-19T02:18:04.770Z,32.20
2017-09-19T02:20:32.521Z,31.65
2017-09-19T02:23:00.302Z,33.30
2017-09-19T02:25:28.055Z,31.75
2017-09-19T02:27:56.223Z,33.33
2017-09-19T02:30:23.979Z,33.20
2017-09-19T02:32:51.731Z,32.00
2017-09-19T02:35:19.515Z,32.25
2017-09-19T02:37:47.265Z,36.10
2017-09-19T02:40:15.078Z,32.28
2017-09-19T02:42:42.853Z,34.30
2017-09-19T02:45:10.603Z,32.50
2017-09-19T02:47:38.385Z,33.50
2017-09-19T02:50:06.136Z,32.10
2017-09-19T02:52:33.939Z,31.50
2017-09-19T02:55:01.689Z,30.45
2017-09-19T02:57:29.444Z,31.08
2017-09-19T02:59:57.247Z,31.30
2017-09-19T03:02:25.783Z,33.22
2017-09-19T03:04:53.591Z,30.83
2017-09-19T03:07:22.106Z,30.70
2017-09-19T03:09:49.857Z,31.35
2017-09-19T03:12:17.643Z,31.90
2017-09-19T03:14:45.395Z,29.40
2017-09-19T03:17:13.202Z,31.15
2017-09-19T03:19:40.952Z,30.17
2017-09-19T03:22:08.699Z,30.15
2017-09-19T03:24:36.474Z,32.38
2017-09-19T03:27:04.223Z,32.25
2017-09-19T03:29:32.027Z,33.15
2017-09-19T03:32:00.539Z,32.10
2017-09-19T03:34:28.286Z,35.35
2017-09-19T03:36:56.066Z,36.45
2017-09-19T03:39:23.810Z,38.60
2017-09-19T03:41:51.622Z,39.17
2017-09-19T03:44:19.370Z,37.88
2017-09-19T03:46:47.459Z,37.47
2017-09-19T03:49:15.237Z,39.22
2017-09-19T03:51:42.986Z,41.22
2017-09-19T03:54:10.795Z,36.38
2017-09-19T03:56:38.538Z,36.58
2017-09-19T04:01:40.680Z,39.67
2017-09-19T04:04:08.436Z,38.75
2017-09-19T04:06:36.246Z,37.75
2017-09-19T04:09:04.041Z,38.65
2017-09-19T04:11:31.835Z,37.92
2017-09-19T04:13:59.607Z,38.25
2017-09-19T04:16:27.353Z,38.22
2017-09-19T04:18:55.258Z,37.80
2017-09-19T04:21:23.774Z,36.05
2017-09-19T04:23:51.527Z,37.45
2017-09-19T04:26:19.323Z,38.38
2017-09-19T04:28:47.085Z,37.30
2017-09-19T04:31:14.903Z,38.90
2017-09-19T04:33:42.668Z,36.67
2017-09-19T04:36:10.414Z,35.00
2017-09-19T04:38:38.196Z,37.65
2017-09-19T04:41:05.942Z,38.15
2017-09-19T04:43:34.510Z,35.63
2017-09-19T04:46:03.024Z,36.75
2017-09-19T04:48:30.771Z,37.38
2017-09-19T04:50:58.554Z,38.13
2017-09-19T04:53:26.307Z,36.83
2017-09-19T04:55:54.114Z,37.13
2017-09-19T04:58:21.875Z,35.72
2017-09-19T05:00:49.614Z,37.05
2017-09-19T05:03:17.401Z,39.97
2017-09-19T05:05:45.148Z,42.38
2017-09-19T05:08:12.969Z,42.88
2017-09-19T05:10:40.721Z,37.97
2017-09-19T05:13:08.519Z,30.48
2017-09-19T05:15:36.305Z,25.90
2017-09-19T05:18:04.079Z,21.92
2017-09-19T05:20:32.690Z,18.60
2017-09-19T05:23:00.460Z,22.62
2017-09-19T05:25:28.235Z,19.85
2017-09-19T05:27:56.044Z,19.50
2017-09-19T05:30:23.825Z,21.95
2017-09-19T05:32:51.677Z,20.92
2017-09-19T05:35:20.211Z,22.30
2017-09-19T05:40:30.039Z,18.37
2017-09-19T05:42:57.808Z,18.17
2017-09-19T05:45:25.639Z,18.12
2017-09-19T05:47:54.181Z,17.98
2017-09-19T05:50:21.955Z,20.15
2017-09-19T05:52:49.759Z,20.55
2017-09-19T05:55:17.528Z,18.60
2017-09-19T05:57:45.352Z,18.90
2017-09-19T06:00:13.125Z,16.25
2017-09-19T06:02:41.654Z,15.65
2017-09-19T06:05:09.467Z,14.80
2017-09-19T06:07:38.048Z,14.25
2017-09-19T06:10:06.625Z,14.73
2017-09-19T06:12:35.177Z,16.02
2017-09-19T06:15:03.286Z,15.07
2017-09-19T06:17:31.850Z,14.40
2017-09-19T06:19:59.683Z,12.37
2017-09-19T06:22:27.940Z,12.27
2017-09-19T06:24:58.862Z,12.60
2017-09-19T06:27:27.181Z,12.15
2017-09-19T06:29:56.128Z,11.52
2017-09-19T06:32:24.087Z,13.27
2017-09-19T06:34:54.229Z,11.73
2017-09-19T06:37:22.985Z,12.48
2017-09-19T06:39:50.840Z,13.43
2017-09-19T06:42:18.661Z,12.80
2017-09-19T06:44:46.440Z,13.43
2017-09-19T06:47:15.111Z,10.90
2017-09-19T06:49:42.919Z,11.95
2017-09-19T06:52:10.785Z,12.63
2017-09-19T06:54:38.661Z,13.15
2017-09-19T06:57:07.434Z,11.73
2017-09-19T06:59:35.351Z,12.05
2017-09-19T07:02:04.957Z,10.95
2017-09-19T07:04:33.555Z,10.50
2017-09-19T07:07:01.813Z,12.15
2017-09-19T07:09:29.595Z,10.52
2017-09-19T07:11:58.208Z,10.02
2017-09-19T07:14:26.066Z,8.95
2017-09-19T07:16:53.984Z,10.90
2017-09-19T07:19:21.803Z,9.63
2017-09-19T07:21:49.612Z,10.23
2017-09-19T07:24:17.417Z,8.70
2017-09-19T07:26:45.224Z,9.65
2017-09-19T07:29:17.466Z,10.80
2017-09-19T07:31:45.774Z,9.70
2017-09-19T07:34:14.253Z,9.95
2017-09-19T07:36:42.827Z,10.00
2017-09-19T07:39:11.004Z,9.30
2017-09-19T07:41:39.793Z,9.93
2017-09-19T07:44:07.580Z,10.32
2017-09-19T07:46:36.216Z,9.43
2017-09-19T07:49:04.045Z,10.15
2017-09-19T07:54:04.232Z,10.88
2017-09-19T07:56:32.044Z,9.65
2017-09-19T07:58:59.904Z,8.85
2017-09-19T08:01:27.684Z,10.30
2017-09-19T08:03:55.460Z,10.68
2017-09-19T08:06:23.268Z,10.25
2017-09-19T08:08:51.821Z,10.10
2017-09-19T08:11:19.659Z,11.70
2017-09-19T08:13:47.468Z,10.85
2017-09-19T08:16:16.032Z,10.00
2017-09-19T08:18:48.283Z,9.90
2017-09-19T08:21:17.287Z,11.60
2017-09-19T08:23:45.159Z,10.30
2017-09-19T08:26:13.730Z,12.32
2017-09-19T08:28:41.504Z,9.85
2017-09-19T08:31:09.380Z,10.18
2017-09-19T08:36:09.207Z,10.32
2017-09-19T08:38:37.756Z,10.77
2017-09-19T08:41:05.542Z,9.77
2017-09-19T08:43:34.132Z,10.27
2017-09-19T08:46:02.677Z,11.02
2017-09-19T08:48:30.504Z,9.63
2017-09-19T08:50:58.296Z,11.18
2017-09-19T08:53:26.065Z,10.65
2017-09-19T08:55:53.860Z,11.73
2017-09-19T08:58:22.400Z,12.27
2017-09-19T09:00:50.239Z,10.52
2017-09-19T09:03:18.008Z,11.23
2017-09-19T09:05:45.784Z,10.77
2017-09-19T09:08:13.579Z,12.57
2017-09-19T09:10:41.356Z,10.75
2017-09-19T09:13:09.953Z,10.38
2017-09-19T09:15:37.723Z,10.70
2017-09-19T09:18:05.501Z,11.70
2017-09-19T09:20:33.307Z,11.55
2017-09-19T09:23:01.101Z,10.27
2017-09-19T09:25:28.938Z,8.85
2017-09-19T09:27:57.472Z,9.52
2017-09-19T09:30:25.240Z,9.48
2017-09-19T09:32:53.036Z,9.77
2017-09-19T09:35:20.810Z,9.57
2017-09-19T09:37:49.412Z,10.52
2017-09-19T09:40:17.177Z,8.60
2017-09-19T09:42:44.968Z,9.23
2017-09-19T09:45:12.768Z,8.70
2017-09-19T09:47:40.533Z,10.15
2017-09-19T09:50:08.360Z,8.73
2017-09-19T09:52:36.123Z,10.30
2017-09-19T09:55:03.892Z,9.07
2017-09-19T09:57:31.714Z,9.48
2017-09-19T09:59:59.476Z,8.00
2017-09-19T10:02:27.298Z,8.00
2017-09-19T10:04:55.059Z,8.13
2017-09-19T10:07:22.832Z,8.63
2017-09-19T10:09:50.627Z,8.35
2017-09-19T10:12:18.393Z,8.73
2017-09-19T10:14:46.220Z,8.25
2017-09-19T10:17:14.755Z,8.85
2017-09-19T10:19:42.518Z,8.15
2017-09-19T10:22:10.312Z,8.65
2017-09-19T10:24:38.080Z,7.90
2017-09-19T10:27:06.674Z,8.65
2017-09-19T10:29:35.217Z,10.85
2017-09-19T10:32:02.991Z,10.20
2017-09-19T10:34:30.805Z,10.43
2017-09-19T10:36:58.572Z,8.50
2017-09-19T10:39:26.398Z,11.38
2017-09-19T10:41:54.935Z,9.77
2017-09-19T10:44:22.700Z,9.63
2017-09-19T10:46:50.502Z,9.10
2017-09-19T10:49:18.266Z,8.98
2017-09-19T10:51:46.863Z,9.45
2017-09-19T10:54:14.990Z,9.52
2017-09-19T10:56:42.759Z,9.95
2017-09-19T10:59:10.555Z,10.45
2017-09-19T11:01:38.325Z,11.00
2017-09-19T11:04:06.154Z,9.55
2017-09-19T11:06:33.941Z,11.05
2017-09-19T11:09:01.712Z,10.45
2017-09-19T11:11:29.511Z,11.30
2017-09-19T11:13:57.317Z,10.45
2017-09-19T11:16:25.917Z,10.23
2017-09-19T11:18:53.691Z,11.23
2017-09-19T11:21:21.465Z,11.25
2017-09-19T11:23:49.263Z,10.13
2017-09-19T11:26:17.030Z,10.80
2017-09-19T11:28:44.853Z,9.32
2017-09-19T11:31:12.623Z,8.90
2017-09-19T11:33:40.392Z,8.57
2017-09-19T11:36:08.191Z,8.82
2017-09-19T11:38:36.725Z,8.68
2017-09-19T11:41:05.374Z,10.00
2017-09-19T11:43:33.135Z,8.23
2017-09-19T11:46:00.900Z,7.53
2017-09-19T11:48:28.698Z,9.00
2017-09-19T11:50:56.472Z,7.60
2017-09-19T11:53:24.308Z,7.47
2017-09-19T11:55:52.071Z,5.75
2017-09-19T11:58:19.826Z,4.70
2017-09-19T12:00:47.617Z,5.30
2017-09-19T12:03:15.383Z,4.93
2017-09-19T12:05:43.210Z,7.85
2017-09-19T12:08:10.978Z,5.85
2017-09-19T12:10:38.744Z,6.20
2017-09-19T12:13:06.543Z,6.90
2017-09-19T12:15:34.324Z,5.50
2017-09-19T12:18:02.921Z,5.97
2017-09-19T12:20:30.694Z,6.68
2017-09-19T12:22:58.467Z,5.78
2017-09-19T12:25:26.292Z,5.40
2017-09-19T12:27:54.818Z,5.90
2017-09-19T12:30:22.590Z,4.97
2017-09-19T12:32:50.387Z,6.32
2017-09-19T12:35:18.914Z,5.25
2017-09-19T12:37:46.696Z,6.07
2017-09-19T12:40:14.495Z,5.40
2017-09-19T12:42:42.272Z,5.50
2017-09-19T12:45:10.042Z,5.40
2017-09-19T12:47:37.839Z,4.95
2017-09-19T12:50:05.606Z,5.40
2017-09-19T12:52:33.371Z,5.10
2017-09-19T12:55:01.168Z,4.80
2017-09-19T12:57:29.704Z,4.10
2017-09-19T12:59:57.477Z,4.62
2017-09-19T13:02:25.279Z,4.05
2017-09-19T13:04:53.823Z,5.25
2017-09-19T13:07:21.584Z,4.22
2017-09-19T13:09:49.377Z,4.10
2017-09-19T13:12:17.916Z,4.12
2017-09-19T13:14:45.689Z,5.12
2017-09-19T13:17:13.481Z,4.45
2017-09-19T13:19:42.014Z,5.35
2017-09-19T13:22:09.822Z,5.18
2017-09-19T13:24:38.395Z,5.47
2017-09-19T13:27:06.917Z,5.55
2017-09-19T13:29:34.708Z,4.93
2017-09-19T13:32:14.404Z,6.05
2017-09-19T13:34:42.208Z,5.80
2017-09-19T13:37:09.976Z,4.87
2017-09-19T13:39:37.790Z,5.95
2017-09-19T13:42:05.593Z,4.40
2017-09-19T13:44:33.394Z,4.28
2017-09-19T13:47:01.951Z,4.85
2017-09-19T13:49:29.718Z,3.60
2017-09-19T13:51:57.540Z,3.83
2017-09-19T13:54:25.321Z,4.15
2017-09-19T13:56:53.082Z,3.78
2017-09-19T13:59:20.898Z,4.45
2017-09-19T14:01:48.677Z,3.40
2017-09-19T14:04:16.492Z,2.80
2017-09-19T14:06:44.264Z,2.72
2017-09-19T14:09:12.028Z,3.30
2017-09-19T14:11:40.597Z,2.90
2017-09-19T14:14:08.365Z,3.95
2017-09-19T14:16:36.188Z,3.47
2017-09-19T14:19:03.946Z,4.85
2017-09-19T14:21:31.747Z,3.37
2017-09-19T14:24:00.446Z,2.78
2017-09-19T14:26:28.994Z,2.80
2017-09-19T14:28:56.823Z,3.40
2017-09-19T14:31:24.611Z,3.50
2017-09-19T14:33:52.383Z,3.37
2017-09-19T14:36:20.180Z,2.35
2017-09-19T14:38:48.715Z,2.10
2017-09-19T14:41:16.535Z,2.72
2017-09-19T14:43:44.323Z,1.90
2017-09-19T14:46:12.091Z,2.28
2017-09-19T14:48:39.892Z,2.17
2017-09-19T14:51:07.664Z,1.98
2017-09-19T14:53:36.253Z,2.90
2017-09-19T14:56:04.792Z,2.70
2017-09-19T14:58:32.565Z,3.75
2017-09-19T15:01:00.364Z,3.15
2017-09-19T15:03:28.906Z,4.55
2017-09-19T15:05:56.732Z,3.20
2017-09-19T15:08:25.270Z,2.80
2017-09-19T15:10:53.816Z,3.22
2017-09-19T15:13:21.624Z,2.67
2017-09-19T15:15:49.406Z,2.80
2017-09-19T15:18:17.231Z,2.90
2017-09-19T15:20:44.998Z,2.90
2017-09-19T15:23:13.543Z,3.37
2017-09-19T15:25:41.338Z,3.05
2017-09-19T15:28:09.102Z,3.60
2017-09-19T15:30:37.695Z,3.60
2017-09-19T15:33:06.251Z,3.00
2017-09-19T15:35:34.022Z,4.43
2017-09-19T15:38:02.589Z,4.18
2017-09-19T15:40:30.369Z,3.60
2017-09-19T15:42:58.959Z,3.87
2017-09-19T15:45:27.515Z,3.40
2017-09-19T15:47:55.310Z,3.45
2017-09-19T15:50:23.120Z,3.75
2017-09-19T15:52:50.902Z,3.55
2017-09-19T15:55:18.730Z,4.10
2017-09-19T15:57:47.280Z,4.00
2017-09-19T16:00:15.070Z,3.17
2017-09-19T16:02:42.888Z,3.95
2017-09-19T16:05:11.420Z,3.45
2017-09-19T16:07:39.244Z,3.90
2017-09-19T16:10:07.785Z,3.87
2017-09-19T16:12:35.543Z,3.35
2017-09-19T16:15:03.362Z,3.80
2017-09-19T16:17:31.140Z,4.20
2017-09-19T16:19:58.969Z,4.15
2017-09-19T16:22:27.517Z,3.87
2017-09-19T16:24:55.300Z,5.68
2017-09-19T16:27:23.879Z,4.15
2017-09-19T16:29:52.413Z,4.28
2017-09-19T16:32:20.248Z,5.00
2017-09-19T16:34:48.027Z,4.87
2017-09-19T16:37:15.832Z,4.55
2017-09-19T16:39:43.634Z,4.47
2017-09-19T16:42:11.414Z,4.20
2017-09-19T16:44:39.234Z,4.70
2017-09-19T16:47:07.784Z,4.62
2017-09-19T16:49:35.559Z,4.93
2017-09-19T16:52:03.371Z,4.65
2017-09-19T16:54:31.141Z,5.37
2017-09-19T16:56:58.974Z,5.75
2017-09-19T16:59:27.524Z,5.30
2017-09-19T17:01:55.286Z,6.03
2017-09-19T17:04:23.086Z,4.80
2017-09-19T17:06:50.862Z,5.95
2017-09-19T17:09:18.735Z,6.70
2017-09-19T17:11:47.265Z,5.80
2017-09-19T17:14:15.040Z,5.60
2017-09-19T17:16:43.613Z,6.18
2017-09-19T17:19:12.151Z,6.82
2017-09-19T17:21:39.989Z,7.07
2017-09-19T17:24:07.773Z,7.70
2017-09-19T17:26:35.575Z,8.23
2017-09-19T17:29:03.406Z,9.50
2017-09-19T17:31:31.207Z,9.65
2017-09-19T17:33:59.824Z,9.73
2017-09-19T17:36:27.607Z,8.75
2017-09-19T17:38:55.374Z,9.70
2017-09-19T17:41:23.181Z,8.40
2017-09-19T17:43:51.728Z,10.27
2017-09-19T17:46:19.562Z,8.57
2017-09-19T17:48:47.342Z,9.65
2017-09-19T17:51:15.122Z,9.40
2017-09-19T17:53:42.935Z,12.65
2017-09-19T17:56:10.709Z,9.40
2017-09-19T17:58:39.331Z,9.85
2017-09-19T18:01:07.120Z,10.70
2017-09-19T18:03:35.670Z,10.30
2017-09-19T18:06:03.517Z,11.15
2017-09-19T18:08:31.301Z,10.27
2017-09-19T18:10:59.117Z,10.32
2017-09-19T18:13:26.895Z,10.05
2017-09-19T18:15:54.735Z,10.98
2017-09-19T18:18:22.568Z,11.05
2017-09-19T18:20:51.117Z,12.68
2017-09-19T18:23:18.945Z,11.35
2017-09-19T18:25:46.750Z,11.30
2017-09-19T18:28:14.628Z,15.40
2017-09-19T18:30:42.415Z,15.48
2017-09-19T18:33:10.220Z,14.93
2017-09-19T18:35:38.069Z,15.73
2017-09-19T18:38:05.853Z,14.65
2017-09-19T18:40:33.697Z,16.40
2017-09-19T18:43:01.544Z,17.70
2017-09-19T18:45:29.327Z,15.60
2017-09-19T18:47:57.164Z,17.02
2017-09-19T18:50:24.939Z,17.77
2017-09-19T18:52:52.789Z,19.30
2017-09-19T18:55:20.572Z,17.65
2017-09-19T18:57:48.350Z,33.53
2017-09-19T19:00:16.183Z,68.10
2017-09-19T19:02:43.994Z,89.47
2017-09-19T19:05:11.882Z,174.55
2017-09-19T19:07:39.677Z,71.97
2017-09-19T19:10:07.495Z,94.40
2017-09-19T19:12:35.323Z,105.75
2017-09-19T19:15:03.109Z,64.10
2017-09-19T19:17:30.944Z,48.45
2017-09-19T19:19:58.749Z,63.17
2017-09-19T19:22:26.536Z,39.45
2017-09-19T19:24:54.366Z,32.28
2017-09-19T19:27:22.162Z,29.50
2017-09-19T19:29:50.024Z,32.92
2017-09-19T19:32:17.830Z,36.15
2017-09-19T19:34:45.619Z,29.37
2017-09-19T19:37:13.455Z,33.25
2017-09-19T19:39:41.289Z,30.35
2017-09-19T19:42:09.237Z,32.90
2017-09-19T19:44:37.791Z,31.00
2017-09-19T19:47:05.596Z,33.42
2017-09-19T19:49:33.426Z,30.15
2017-09-19T19:52:01.981Z,31.23
2017-09-19T19:54:29.845Z,29.23
2017-09-19T19:56:57.620Z,29.20
2017-09-19T19:59:25.395Z,31.77
2017-09-19T20:01:54.025Z,36.65
2017-09-19T20:04:21.808Z,33.78
2017-09-19T20:06:49.665Z,32.28
2017-09-19T20:09:17.493Z,29.08
2017-09-19T20:11:45.288Z,31.55
2017-09-19T20:14:13.096Z,30.83
2017-09-19T20:16:41.657Z,29.48
2017-09-19T20:19:09.498Z,32.65
2017-09-19T20:21:37.265Z,32.00
2017-09-19T20:24:05.029Z,30.55
2017-09-19T20:26:32.836Z,28.52
2017-09-19T20:29:01.391Z,27.85
2017-09-19T20:31:29.814Z,26.70
2017-09-19T20:33:57.595Z,28.87
2017-09-19T20:36:25.378Z,30.35
2017-09-19T20:38:53.201Z,27.87
2017-09-19T20:41:20.987Z,27.77
2017-09-19T20:43:49.643Z,28.98
2017-09-19T20:46:17.423Z,27.83
2017-09-19T20:48:45.217Z,26.67
2017-09-19T20:51:13.033Z,25.45
2017-09-19T20:53:40.806Z,26.33
2017-09-19T20:56:08.674Z,23.17
2017-09-19T20:58:36.456Z,24.12
2017-09-19T21:01:04.221Z,23.98
2017-09-19T21:03:37.618Z,22.85
2017-09-19T21:06:10.976Z,21.77
2017-09-19T21:08:44.480Z,21.08
2017-09-19T21:11:17.858Z,24.42
2017-09-19T21:13:51.409Z,21.02
2017-09-19T21:16:24.732Z,22.30
2017-09-19T21:18:58.082Z,21.77
2017-09-19T21:21:25.873Z,22.90
2017-09-19T21:23:54.486Z,21.15
2017-09-19T21:26:22.269Z,25.45
2017-09-19T21:28:50.045Z,58.28
2017-09-19T21:31:17.885Z,39.67
2017-09-19T21:33:45.668Z,32.95
2017-09-19T21:36:13.499Z,28.77
2017-09-19T21:38:41.281Z,32.92
2017-09-19T21:41:09.080Z,29.40
2017-09-19T21:43:37.663Z,28.75
2017-09-19T21:46:06.214Z,26.87
2017-09-19T21:48:34.052Z,35.03
2017-09-19T21:51:01.835Z,65.35
2017-09-19T21:53:29.623Z,39.03
2017-09-19T21:55:57.433Z,27.05
2017-09-19T21:58:25.199Z,20.17
2017-09-19T22:00:53.041Z,25.50
2017-09-19T22:03:21.595Z,31.08
2017-09-19T22:05:50.150Z,23.45
2017-09-19T22:08:17.951Z,22.87
2017-09-19T22:10:46.502Z,40.20
2017-09-19T22:13:14.347Z,31.65
2017-09-19T22:15:42.133Z,37.03
2017-09-19T22:18:09.912Z,27.35
2017-09-19T22:20:38.525Z,26.00
2017-09-19T22:23:06.335Z,27.15
2017-09-19T22:25:34.163Z,23.73
2017-09-19T22:28:01.942Z,25.33
2017-09-19T22:30:29.717Z,22.35
2017-09-19T22:32:57.539Z,24.02
2017-09-19T22:35:25.335Z,23.70
2017-09-19T22:37:53.162Z,23.87
2017-09-19T22:40:20.936Z,33.30
2017-09-19T22:42:48.713Z,28.45
2017-09-19T22:45:16.522Z,25.05
2017-09-19T22:47:45.067Z,25.92
2017-09-19T22:50:12.891Z,23.70
2017-09-19T22:52:40.711Z,27.37
2017-09-19T22:55:08.483Z,32.70
2017-09-19T22:57:36.284Z,33.45
2017-09-19T23:00:04.072Z,60.38
2017-09-19T23:02:31.907Z,64.05
2017-09-19T23:05:00.459Z,86.30
2017-09-19T23:07:28.224Z,53.05
2017-09-19T23:09:56.820Z,61.55
2017-09-19T23:12:24.591Z,43.58
2017-09-19T23:14:52.458Z,138.52
2017-09-19T23:17:20.249Z,47.08
2017-09-19T23:19:48.017Z,44.88
2017-09-19T23:22:15.820Z,30.98
2017-09-19T23:24:44.377Z,32.05
2017-09-19T23:27:12.225Z,35.75
2017-09-19T23:29:40.003Z,47.90
2017-09-19T23:32:08.543Z,63.42
2017-09-19T23:34:36.425Z,59.63
2017-09-19T23:37:04.203Z,86.85
2017-09-19T23:39:32.026Z,31.30
2017-09-19T23:41:59.797Z,32.45
2017-09-19T23:44:27.586Z,35.08
2017-09-19T23:46:55.379Z,33.90
2017-09-19T23:49:23.911Z,33.15
2017-09-19T23:51:51.738Z,55.65
2017-09-19T23:54:19.515Z,34.20
2017-09-19T23:56:47.279Z,33.38
2017-09-19T23:59:15.101Z,33.75
